sensor_id;sensor_type;location;lat;lon;timestamp;pressure;altitude;pressure_sealevel;temperature
42197;BMP280;27866;48.146;17.098;2023-08-01T00:02:33;98902.03;;;24.51
42197;BMP280;27866;48.146;17.098;2023-08-01T00:06:45;98888.66;;;24.46
42197;BMP280;27866;48.146;17.098;2023-08-01T00:10:56;98885.78;;;24.41
42197;BMP280;27866;48.146;17.098;2023-08-01T00:15:07;98883.97;;;24.36
42197;BMP280;27866;48.146;17.098;2023-08-01T00:19:18;98881.50;;;24.40
42197;BMP280;27866;48.146;17.098;2023-08-01T00:23:29;98881.13;;;24.31
42197;BMP280;27866;48.146;17.098;2023-08-01T00:27:40;98884.00;;;24.23
42197;BMP280;27866;48.146;17.098;2023-08-01T00:31:51;98876.06;;;24.23
42197;BMP280;27866;48.146;17.098;2023-08-01T00:36:02;98871.16;;;24.26
42197;BMP280;27866;48.146;17.098;2023-08-01T00:40:14;98862.84;;;24.23
42197;BMP280;27866;48.146;17.098;2023-08-01T00:44:27;98848.22;;;24.14
42197;BMP280;27866;48.146;17.098;2023-08-01T00:48:38;98846.44;;;24.09
42197;BMP280;27866;48.146;17.098;2023-08-01T00:52:50;98839.72;;;24.00
42197;BMP280;27866;48.146;17.098;2023-08-01T00:57:03;98830.41;;;23.91
42197;BMP280;27866;48.146;17.098;2023-08-01T01:01:14;98814.78;;;23.77
42197;BMP280;27866;48.146;17.098;2023-08-01T01:05:25;98806.84;;;23.77
42197;BMP280;27866;48.146;17.098;2023-08-01T01:09:38;98798.28;;;23.75
42197;BMP280;27866;48.146;17.098;2023-08-01T01:13:49;98804.44;;;23.63
42197;BMP280;27866;48.146;17.098;2023-08-01T01:18:03;98802.19;;;23.60
42197;BMP280;27866;48.146;17.098;2023-08-01T01:22:14;98794.28;;;23.48
42197;BMP280;27866;48.146;17.098;2023-08-01T01:26:26;98792.66;;;23.47
42197;BMP280;27866;48.146;17.098;2023-08-01T01:30:37;98785.16;;;23.37
42197;BMP280;27866;48.146;17.098;2023-08-01T01:34:49;98786.19;;;23.30
42197;BMP280;27866;48.146;17.098;2023-08-01T01:39:00;98795.53;;;23.20
42197;BMP280;27866;48.146;17.098;2023-08-01T01:43:11;98796.78;;;23.11
42197;BMP280;27866;48.146;17.098;2023-08-01T01:47:22;98786.97;;;22.99
42197;BMP280;27866;48.146;17.098;2023-08-01T01:51:33;98788.41;;;22.89
42197;BMP280;27866;48.146;17.098;2023-08-01T01:55:44;98786.56;;;22.90
42197;BMP280;27866;48.146;17.098;2023-08-01T01:59:56;98776.44;;;22.87
42197;BMP280;27866;48.146;17.098;2023-08-01T02:04:07;98781.72;;;22.87
42197;BMP280;27866;48.146;17.098;2023-08-01T02:08:18;98774.41;;;22.89
42197;BMP280;27866;48.146;17.098;2023-08-01T02:12:29;98775.63;;;22.99
42197;BMP280;27866;48.146;17.098;2023-08-01T02:16:43;98763.03;;;23.01
42197;BMP280;27866;48.146;17.098;2023-08-01T02:20:54;98751.88;;;23.11
42197;BMP280;27866;48.146;17.098;2023-08-01T02:25:05;98746.38;;;23.19
42197;BMP280;27866;48.146;17.098;2023-08-01T02:29:16;98741.06;;;23.32
42197;BMP280;27866;48.146;17.098;2023-08-01T02:33:27;98740.84;;;23.33
42197;BMP280;27866;48.146;17.098;2023-08-01T02:37:39;98731.31;;;23.32
42197;BMP280;27866;48.146;17.098;2023-08-01T02:41:50;98736.97;;;23.42
42197;BMP280;27866;48.146;17.098;2023-08-01T02:46:01;98726.03;;;23.32
42197;BMP280;27866;48.146;17.098;2023-08-01T02:50:12;98714.25;;;23.28
42197;BMP280;27866;48.146;17.098;2023-08-01T02:54:23;98716.13;;;23.15
42197;BMP280;27866;48.146;17.098;2023-08-01T02:58:34;98715.47;;;23.07
42197;BMP280;27866;48.146;17.098;2023-08-01T03:02:45;98723.00;;;22.97
42197;BMP280;27866;48.146;17.098;2023-08-01T03:06:56;98720.78;;;23.01
42197;BMP280;27866;48.146;17.098;2023-08-01T03:11:07;98724.03;;;22.96
42197;BMP280;27866;48.146;17.098;2023-08-01T03:15:18;98725.84;;;23.02
42197;BMP280;27866;48.146;17.098;2023-08-01T03:19:29;98722.59;;;23.00
42197;BMP280;27866;48.146;17.098;2023-08-01T03:23:40;98728.94;;;23.12
42197;BMP280;27866;48.146;17.098;2023-08-01T03:27:52;98730.31;;;23.21
42197;BMP280;27866;48.146;17.098;2023-08-01T03:32:05;98731.34;;;23.20
42197;BMP280;27866;48.146;17.098;2023-08-01T03:36:16;98723.22;;;23.21
42197;BMP280;27866;48.146;17.098;2023-08-01T03:40:27;98724.84;;;23.16
42197;BMP280;27866;48.146;17.098;2023-08-01T03:44:40;98711.44;;;23.23
42197;BMP280;27866;48.146;17.098;2023-08-01T03:48:51;98700.44;;;23.20
42197;BMP280;27866;48.146;17.098;2023-08-01T03:53:02;98703.09;;;23.08
42197;BMP280;27866;48.146;17.098;2023-08-01T03:57:14;98708.56;;;23.19
42197;BMP280;27866;48.146;17.098;2023-08-01T04:01:25;98699.66;;;23.13
42197;BMP280;27866;48.146;17.098;2023-08-01T04:05:37;98702.28;;;23.20
42197;BMP280;27866;48.146;17.098;2023-08-01T04:09:48;98702.47;;;23.18
42197;BMP280;27866;48.146;17.098;2023-08-01T04:13:59;98707.97;;;23.23
42197;BMP280;27866;48.146;17.098;2023-08-01T04:18:10;98705.72;;;23.08
42197;BMP280;27866;48.146;17.098;2023-08-01T04:22:21;98713.03;;;22.99
42197;BMP280;27866;48.146;17.098;2023-08-01T04:26:32;98706.75;;;23.07
42197;BMP280;27866;48.146;17.098;2023-08-01T04:30:49;98707.19;;;23.10
42197;BMP280;27866;48.146;17.098;2023-08-01T04:35:00;98718.34;;;23.12
42197;BMP280;27866;48.146;17.098;2023-08-01T04:39:11;98712.66;;;23.15
42197;BMP280;27866;48.146;17.098;2023-08-01T04:43:22;98714.06;;;23.17
42197;BMP280;27866;48.146;17.098;2023-08-01T04:47:33;98712.63;;;23.27
42197;BMP280;27866;48.146;17.098;2023-08-01T04:51:44;98715.41;;;23.45
42197;BMP280;27866;48.146;17.098;2023-08-01T04:55:55;98705.41;;;23.59
42197;BMP280;27866;48.146;17.098;2023-08-01T05:00:07;98704.59;;;23.65
42197;BMP280;27866;48.146;17.098;2023-08-01T05:04:18;98698.25;;;23.66
42197;BMP280;27866;48.146;17.098;2023-08-01T05:08:29;98689.56;;;23.59
42197;BMP280;27866;48.146;17.098;2023-08-01T05:12:40;98682.31;;;23.36
42197;BMP280;27866;48.146;17.098;2023-08-01T05:16:51;98703.00;;;23.52
42197;BMP280;27866;48.146;17.098;2023-08-01T05:21:02;98698.88;;;23.68
42197;BMP280;27866;48.146;17.098;2023-08-01T05:25:13;98706.97;;;23.73
42197;BMP280;27866;48.146;17.098;2023-08-01T05:29:24;98697.22;;;23.80
42197;BMP280;27866;48.146;17.098;2023-08-01T05:33:35;98690.97;;;24.04
42197;BMP280;27866;48.146;17.098;2023-08-01T05:37:46;98702.16;;;24.42
42197;BMP280;27866;48.146;17.098;2023-08-01T05:41:57;98714.47;;;24.54
42197;BMP280;27866;48.146;17.098;2023-08-01T05:46:08;98721.03;;;24.52
42197;BMP280;27866;48.146;17.098;2023-08-01T05:50:19;98711.31;;;24.40
42197;BMP280;27866;48.146;17.098;2023-08-01T05:54:30;98711.22;;;24.53
42197;BMP280;27866;48.146;17.098;2023-08-01T05:58:41;98702.16;;;24.42
42197;BMP280;27866;48.146;17.098;2023-08-01T06:02:53;98702.75;;;24.68
42197;BMP280;27866;48.146;17.098;2023-08-01T06:07:04;98682.75;;;24.96
42197;BMP280;27866;48.146;17.098;2023-08-01T06:11:16;98692.38;;;25.14
42197;BMP280;27866;48.146;17.098;2023-08-01T06:15:27;98689.22;;;25.23
42197;BMP280;27866;48.146;17.098;2023-08-01T06:19:38;98680.84;;;25.61
42197;BMP280;27866;48.146;17.098;2023-08-01T06:23:49;98686.69;;;25.69
42197;BMP280;27866;48.146;17.098;2023-08-01T06:28:00;98679.38;;;25.82
42197;BMP280;27866;48.146;17.098;2023-08-01T06:32:11;98683.56;;;25.72
42197;BMP280;27866;48.146;17.098;2023-08-01T06:36:22;98676.13;;;25.80
42197;BMP280;27866;48.146;17.098;2023-08-01T06:40:33;98677.38;;;25.78
42197;BMP280;27866;48.146;17.098;2023-08-01T06:44:45;98678.53;;;25.99
42197;BMP280;27866;48.146;17.098;2023-08-01T06:48:56;98673.88;;;26.52
42197;BMP280;27866;48.146;17.098;2023-08-01T06:53:07;98668.81;;;26.73
42197;BMP280;27866;48.146;17.098;2023-08-01T06:57:19;98658.06;;;26.68
42197;BMP280;27866;48.146;17.098;2023-08-01T07:01:30;98668.09;;;26.55
42197;BMP280;27866;48.146;17.098;2023-08-01T07:05:43;98657.72;;;26.64
42197;BMP280;27866;48.146;17.098;2023-08-01T07:09:54;98677.59;;;26.73
42197;BMP280;27866;48.146;17.098;2023-08-01T07:14:05;98682.97;;;26.16
42197;BMP280;27866;48.146;17.098;2023-08-01T07:18:16;98675.69;;;26.12
42197;BMP280;27866;48.146;17.098;2023-08-01T07:22:27;98688.34;;;26.10
42197;BMP280;27866;48.146;17.098;2023-08-01T07:26:39;98685.31;;;26.24
42197;BMP280;27866;48.146;17.098;2023-08-01T07:31:01;98687.22;;;26.34
42197;BMP280;27866;48.146;17.098;2023-08-01T07:35:12;98688.63;;;26.48
42197;BMP280;27866;48.146;17.098;2023-08-01T07:39:24;98691.66;;;26.62
42197;BMP280;27866;48.146;17.098;2023-08-01T07:43:35;98690.63;;;26.63
42197;BMP280;27866;48.146;17.098;2023-08-01T07:47:46;98688.88;;;26.58
42197;BMP280;27866;48.146;17.098;2023-08-01T07:51:57;98698.25;;;26.60
42197;BMP280;27866;48.146;17.098;2023-08-01T07:56:08;98703.66;;;26.54
42197;BMP280;27866;48.146;17.098;2023-08-01T08:00:19;98701.88;;;26.37
42197;BMP280;27866;48.146;17.098;2023-08-01T08:04:30;98712.84;;;26.12
42197;BMP280;27866;48.146;17.098;2023-08-01T08:08:41;98714.25;;;25.97
42197;BMP280;27866;48.146;17.098;2023-08-01T08:12:52;98716.69;;;25.81
42197;BMP280;27866;48.146;17.098;2023-08-01T08:17:03;98715.44;;;25.66
42197;BMP280;27866;48.146;17.098;2023-08-01T08:21:14;98697.69;;;25.49
42197;BMP280;27866;48.146;17.098;2023-08-01T08:25:25;98706.03;;;25.52
42197;BMP280;27866;48.146;17.098;2023-08-01T08:29:37;98704.16;;;25.53
42197;BMP280;27866;48.146;17.098;2023-08-01T08:33:48;98700.94;;;25.51
42197;BMP280;27866;48.146;17.098;2023-08-01T08:38:01;98700.94;;;25.51
42197;BMP280;27866;48.146;17.098;2023-08-01T08:42:12;98704.47;;;25.45
42197;BMP280;27866;48.146;17.098;2023-08-01T08:46:28;98701.63;;;25.46
42197;BMP280;27866;48.146;17.098;2023-08-01T08:50:40;98694.16;;;25.55
42197;BMP280;27866;48.146;17.098;2023-08-01T08:54:52;98695.03;;;25.66
42197;BMP280;27866;48.146;17.098;2023-08-01T08:59:04;98696.59;;;25.73
42197;BMP280;27866;48.146;17.098;2023-08-01T09:03:15;98705.06;;;25.82
42197;BMP280;27866;48.146;17.098;2023-08-01T09:07:29;98682.97;;;25.87
42197;BMP280;27866;48.146;17.098;2023-08-01T09:11:48;98693.56;;;25.87
42197;BMP280;27866;48.146;17.098;2023-08-01T09:15:59;98690.25;;;25.92
42197;BMP280;27866;48.146;17.098;2023-08-01T09:20:12;98694.81;;;25.85
42197;BMP280;27866;48.146;17.098;2023-08-01T09:24:23;98692.09;;;25.91
42197;BMP280;27866;48.146;17.098;2023-08-01T09:28:34;98675.13;;;25.92
42197;BMP280;27866;48.146;17.098;2023-08-01T09:32:55;98676.19;;;25.91
42197;BMP280;27866;48.146;17.098;2023-08-01T09:37:06;98668.50;;;26.01
42197;BMP280;27866;48.146;17.098;2023-08-01T09:41:18;98668.03;;;26.04
42197;BMP280;27866;48.146;17.098;2023-08-01T09:45:29;98673.59;;;26.14
42197;BMP280;27866;48.146;17.098;2023-08-01T09:49:49;98674.22;;;25.98
42197;BMP280;27866;48.146;17.098;2023-08-01T09:54:04;98664.47;;;26.10
42197;BMP280;27866;48.146;17.098;2023-08-01T09:58:15;98653.88;;;26.10
42197;BMP280;27866;48.146;17.098;2023-08-01T10:02:29;98653.91;;;25.92
42197;BMP280;27866;48.146;17.098;2023-08-01T10:06:43;98656.66;;;25.86
42197;BMP280;27866;48.146;17.098;2023-08-01T10:10:56;98663.53;;;25.76
42197;BMP280;27866;48.146;17.098;2023-08-01T10:15:08;98662.09;;;25.91
42197;BMP280;27866;48.146;17.098;2023-08-01T10:19:19;98655.25;;;26.41
42197;BMP280;27866;48.146;17.098;2023-08-01T10:23:32;98647.44;;;26.68
42197;BMP280;27866;48.146;17.098;2023-08-01T10:27:43;98651.16;;;26.89
42197;BMP280;27866;48.146;17.098;2023-08-01T10:31:54;98667.34;;;26.99
42197;BMP280;27866;48.146;17.098;2023-08-01T10:36:13;98664.44;;;27.00
42197;BMP280;27866;48.146;17.098;2023-08-01T10:40:33;98661.22;;;27.09
42197;BMP280;27866;48.146;17.098;2023-08-01T10:44:45;98671.84;;;26.98
42197;BMP280;27866;48.146;17.098;2023-08-01T10:48:56;98668.16;;;26.88
42197;BMP280;27866;48.146;17.098;2023-08-01T10:53:09;98662.56;;;26.67
42197;BMP280;27866;48.146;17.098;2023-08-01T10:57:20;98673.88;;;26.63
42197;BMP280;27866;48.146;17.098;2023-08-01T11:01:45;98689.44;;;26.37
42197;BMP280;27866;48.146;17.098;2023-08-01T11:05:58;98697.81;;;26.06
42197;BMP280;27866;48.146;17.098;2023-08-01T11:10:13;98699.78;;;25.82
42197;BMP280;27866;48.146;17.098;2023-08-01T11:14:28;98669.81;;;25.92
42197;BMP280;27866;48.146;17.098;2023-08-01T11:18:42;98677.59;;;25.94
42197;BMP280;27866;48.146;17.098;2023-08-01T11:22:57;98675.31;;;25.80
42197;BMP280;27866;48.146;17.098;2023-08-01T11:27:11;98663.53;;;25.76
42197;BMP280;27866;48.146;17.098;2023-08-01T11:31:22;98669.66;;;25.76
42197;BMP280;27866;48.146;17.098;2023-08-01T11:35:35;98651.13;;;25.87
42197;BMP280;27866;48.146;17.098;2023-08-01T11:39:46;98666.53;;;25.62
42197;BMP280;27866;48.146;17.098;2023-08-01T11:44:02;98651.38;;;25.69
42197;BMP280;27866;48.146;17.098;2023-08-01T11:48:14;98656.75;;;25.62
42197;BMP280;27866;48.146;17.098;2023-08-01T11:52:27;98651.59;;;25.32
42197;BMP280;27866;48.146;17.098;2023-08-01T11:56:39;98652.72;;;25.25
42197;BMP280;27866;48.146;17.098;2023-08-01T12:00:50;98676.28;;;24.92
42197;BMP280;27866;48.146;17.098;2023-08-01T12:05:01;98685.31;;;24.61
42197;BMP280;27866;48.146;17.098;2023-08-01T12:09:13;98670.50;;;24.77
42197;BMP280;27866;48.146;17.098;2023-08-01T12:13:25;98662.31;;;24.79
42197;BMP280;27866;48.146;17.098;2023-08-01T12:17:37;98675.06;;;24.40
42197;BMP280;27866;48.146;17.098;2023-08-01T12:21:48;98665.84;;;24.19
42197;BMP280;27866;48.146;17.098;2023-08-01T12:25:59;98655.63;;;23.99
42197;BMP280;27866;48.146;17.098;2023-08-01T12:30:11;98652.28;;;23.80
42197;BMP280;27866;48.146;17.098;2023-08-01T12:34:22;98654.09;;;23.79
42197;BMP280;27866;48.146;17.098;2023-08-01T12:38:33;98660.50;;;23.59
42197;BMP280;27866;48.146;17.098;2023-08-01T12:42:46;98679.19;;;23.58
42197;BMP280;27866;48.146;17.098;2023-08-01T12:46:57;98661.88;;;23.62
42197;BMP280;27866;48.146;17.098;2023-08-01T12:51:08;98644.81;;;23.58
42197;BMP280;27866;48.146;17.098;2023-08-01T12:55:19;98642.97;;;23.65
42197;BMP280;27866;48.146;17.098;2023-08-01T12:59:30;98659.22;;;23.68
42197;BMP280;27866;48.146;17.098;2023-08-01T13:03:41;98655.72;;;23.74
42197;BMP280;27866;48.146;17.098;2023-08-01T13:07:52;98651.69;;;23.78
42197;BMP280;27866;48.146;17.098;2023-08-01T13:12:04;98656.41;;;23.63
42197;BMP280;27866;48.146;17.098;2023-08-01T13:16:15;98658.69;;;23.47
42197;BMP280;27866;48.146;17.098;2023-08-01T13:20:26;98660.19;;;23.24
42197;BMP280;27866;48.146;17.098;2023-08-01T13:24:37;98652.94;;;23.14
42197;BMP280;27866;48.146;17.098;2023-08-01T13:28:48;98644.38;;;22.99
42197;BMP280;27866;48.146;17.098;2023-08-01T13:33:00;98620.22;;;23.02
42197;BMP280;27866;48.146;17.098;2023-08-01T13:37:10;98612.69;;;22.99
42197;BMP280;27866;48.146;17.098;2023-08-01T13:41:22;98595.44;;;23.03
42197;BMP280;27866;48.146;17.098;2023-08-01T13:45:33;98600.53;;;23.05
42197;BMP280;27866;48.146;17.098;2023-08-01T13:49:45;98616.38;;;22.98
42197;BMP280;27866;48.146;17.098;2023-08-01T13:53:56;98619.03;;;22.92
42197;BMP280;27866;48.146;17.098;2023-08-01T13:58:09;98612.09;;;22.97
42197;BMP280;27866;48.146;17.098;2023-08-01T14:02:20;98620.03;;;22.97
42197;BMP280;27866;48.146;17.098;2023-08-01T14:06:31;98628.16;;;22.90
42197;BMP280;27866;48.146;17.098;2023-08-01T14:10:43;98619.47;;;22.83
42197;BMP280;27866;48.146;17.098;2023-08-01T14:14:54;98618.06;;;22.74
42197;BMP280;27866;48.146;17.098;2023-08-01T14:19:05;98617.66;;;22.64
42197;BMP280;27866;48.146;17.098;2023-08-01T14:23:17;98627.41;;;22.58
42197;BMP280;27866;48.146;17.098;2023-08-01T14:27:28;98636.31;;;22.69
42197;BMP280;27866;48.146;17.098;2023-08-01T14:31:39;98629.22;;;22.70
42197;BMP280;27866;48.146;17.098;2023-08-01T14:35:50;98630.69;;;22.47
42197;BMP280;27866;48.146;17.098;2023-08-01T14:40:02;98623.97;;;22.51
42197;BMP280;27866;48.146;17.098;2023-08-01T14:44:15;98612.00;;;22.61
42197;BMP280;27866;48.146;17.098;2023-08-01T14:48:26;98631.06;;;22.57
42197;BMP280;27866;48.146;17.098;2023-08-01T14:52:38;98661.09;;;22.56
42197;BMP280;27866;48.146;17.098;2023-08-01T14:56:49;98672.84;;;22.35
42197;BMP280;27866;48.146;17.098;2023-08-01T15:01:00;98679.75;;;22.23
42197;BMP280;27866;48.146;17.098;2023-08-01T15:05:12;98662.28;;;22.22
42197;BMP280;27866;48.146;17.098;2023-08-01T15:09:23;98663.91;;;22.23
42197;BMP280;27866;48.146;17.098;2023-08-01T15:13:34;98665.91;;;22.08
42197;BMP280;27866;48.146;17.098;2023-08-01T15:17:46;98673.81;;;22.02
42197;BMP280;27866;48.146;17.098;2023-08-01T15:21:57;98673.19;;;21.94
42197;BMP280;27866;48.146;17.098;2023-08-01T15:26:08;98668.31;;;21.97
42197;BMP280;27866;48.146;17.098;2023-08-01T15:30:19;98672.22;;;22.07
42197;BMP280;27866;48.146;17.098;2023-08-01T15:34:30;98673.25;;;22.19
42197;BMP280;27866;48.146;17.098;2023-08-01T15:38:42;98674.25;;;22.12
42197;BMP280;27866;48.146;17.098;2023-08-01T15:42:53;98662.88;;;22.11
42197;BMP280;27866;48.146;17.098;2023-08-01T15:47:04;98654.19;;;22.23
42197;BMP280;27866;48.146;17.098;2023-08-01T15:51:15;98644.84;;;22.21
42197;BMP280;27866;48.146;17.098;2023-08-01T15:55:26;98635.50;;;22.00
42197;BMP280;27866;48.146;17.098;2023-08-01T15:59:37;98619.25;;;22.09
42197;BMP280;27866;48.146;17.098;2023-08-01T16:03:48;98614.00;;;22.03
42197;BMP280;27866;48.146;17.098;2023-08-01T16:07:59;98625.78;;;22.06
42197;BMP280;27866;48.146;17.098;2023-08-01T16:12:11;98607.09;;;22.14
42197;BMP280;27866;48.146;17.098;2023-08-01T16:16:22;98617.66;;;22.02
42197;BMP280;27866;48.146;17.098;2023-08-01T16:20:33;98625.75;;;22.00
42197;BMP280;27866;48.146;17.098;2023-08-01T16:24:45;98655.34;;;22.08
42197;BMP280;27866;48.146;17.098;2023-08-01T16:28:56;98689.03;;;22.00
42197;BMP280;27866;48.146;17.098;2023-08-01T16:33:07;98702.97;;;21.88
42197;BMP280;27866;48.146;17.098;2023-08-01T16:37:18;98697.72;;;21.82
42197;BMP280;27866;48.146;17.098;2023-08-01T16:41:32;98707.63;;;21.86
42197;BMP280;27866;48.146;17.098;2023-08-01T16:45:43;98693.47;;;21.87
42197;BMP280;27866;48.146;17.098;2023-08-01T16:49:55;98686.34;;;21.81
42197;BMP280;27866;48.146;17.098;2023-08-01T16:54:06;98686.56;;;21.92
42197;BMP280;27866;48.146;17.098;2023-08-01T16:58:17;98675.63;;;21.89
42197;BMP280;27866;48.146;17.098;2023-08-01T17:02:28;98676.06;;;21.99
42197;BMP280;27866;48.146;17.098;2023-08-01T17:06:39;98680.91;;;21.89
42197;BMP280;27866;48.146;17.098;2023-08-01T17:10:51;98690.03;;;21.93
42197;BMP280;27866;48.146;17.098;2023-08-01T17:15:02;98674.84;;;21.95
42197;BMP280;27866;48.146;17.098;2023-08-01T17:19:14;98676.66;;;21.94
42197;BMP280;27866;48.146;17.098;2023-08-01T17:23:26;98670.34;;;21.95
42197;BMP280;27866;48.146;17.098;2023-08-01T17:27:37;98665.91;;;21.96
42197;BMP280;27866;48.146;17.098;2023-08-01T17:31:49;98660.22;;;21.92
42197;BMP280;27866;48.146;17.098;2023-08-01T17:36:00;98664.66;;;21.92
42197;BMP280;27866;48.146;17.098;2023-08-01T17:40:11;98703.59;;;21.90
42197;BMP280;27866;48.146;17.098;2023-08-01T17:44:22;98713.53;;;21.88
42197;BMP280;27866;48.146;17.098;2023-08-01T17:48:34;98714.34;;;21.89
42197;BMP280;27866;48.146;17.098;2023-08-01T17:52:47;98703.19;;;21.87
42197;BMP280;27866;48.146;17.098;2023-08-01T17:56:58;98687.75;;;21.77
42197;BMP280;27866;48.146;17.098;2023-08-01T18:01:09;98663.41;;;21.76
42197;BMP280;27866;48.146;17.098;2023-08-01T18:05:20;98665.19;;;21.62
42197;BMP280;27866;48.146;17.098;2023-08-01T18:09:32;98652.56;;;21.52
42197;BMP280;27866;48.146;17.098;2023-08-01T18:13:45;98641.00;;;21.47
42197;BMP280;27866;48.146;17.098;2023-08-01T18:17:57;98638.59;;;21.51
42197;BMP280;27866;48.146;17.098;2023-08-01T18:22:08;98632.31;;;21.52
42197;BMP280;27866;48.146;17.098;2023-08-01T18:26:21;98623.22;;;21.61
42197;BMP280;27866;48.146;17.098;2023-08-01T18:30:32;98631.31;;;21.60
42197;BMP280;27866;48.146;17.098;2023-08-01T18:34:43;98635.75;;;21.53
42197;BMP280;27866;48.146;17.098;2023-08-01T18:38:54;98641.66;;;21.61
42197;BMP280;27866;48.146;17.098;2023-08-01T18:43:06;98659.66;;;21.51
42197;BMP280;27866;48.146;17.098;2023-08-01T18:47:17;98660.03;;;21.48
42197;BMP280;27866;48.146;17.098;2023-08-01T18:51:28;98634.34;;;21.57
42197;BMP280;27866;48.146;17.098;2023-08-01T18:55:40;98601.31;;;21.54
42197;BMP280;27866;48.146;17.098;2023-08-01T18:59:51;98598.47;;;21.49
42197;BMP280;27866;48.146;17.098;2023-08-01T19:04:02;98588.56;;;21.64
42197;BMP280;27866;48.146;17.098;2023-08-01T19:08:13;98579.03;;;21.63
42197;BMP280;27866;48.146;17.098;2023-08-01T19:12:24;98626.03;;;21.53
42197;BMP280;27866;48.146;17.098;2023-08-01T19:16:35;98651.97;;;21.56
42197;BMP280;27866;48.146;17.098;2023-08-01T19:20:46;98676.34;;;21.64
42197;BMP280;27866;48.146;17.098;2023-08-01T19:24:57;98684.19;;;21.58
42197;BMP280;27866;48.146;17.098;2023-08-01T19:29:08;98675.72;;;21.69
42197;BMP280;27866;48.146;17.098;2023-08-01T19:33:20;98682.25;;;21.73
42197;BMP280;27866;48.146;17.098;2023-08-01T19:37:31;98697.09;;;21.86
42197;BMP280;27866;48.146;17.098;2023-08-01T19:41:42;98688.16;;;21.81
42197;BMP280;27866;48.146;17.098;2023-08-01T19:45:54;98684.50;;;21.76
42197;BMP280;27866;48.146;17.098;2023-08-01T19:50:05;98683.63;;;21.69
42197;BMP280;27866;48.146;17.098;2023-08-01T19:54:19;98696.00;;;21.68
42197;BMP280;27866;48.146;17.098;2023-08-01T19:58:30;98688.06;;;21.62
42197;BMP280;27866;48.146;17.098;2023-08-01T20:02:41;98700.41;;;21.62
42197;BMP280;27866;48.146;17.098;2023-08-01T20:06:53;98707.09;;;21.58
42197;BMP280;27866;48.146;17.098;2023-08-01T20:11:04;98696.50;;;21.45
42197;BMP280;27866;48.146;17.098;2023-08-01T20:15:15;98687.56;;;21.40
42197;BMP280;27866;48.146;17.098;2023-08-01T20:19:26;98708.84;;;21.45
42197;BMP280;27866;48.146;17.098;2023-08-01T20:23:37;98703.59;;;21.45
42197;BMP280;27866;48.146;17.098;2023-08-01T20:27:48;98690.81;;;21.42
42197;BMP280;27866;48.146;17.098;2023-08-01T20:31:59;98679.41;;;21.29
42197;BMP280;27866;48.146;17.098;2023-08-01T20:36:10;98671.31;;;21.30
42197;BMP280;27866;48.146;17.098;2023-08-01T20:40:21;98668.28;;;21.33
42197;BMP280;27866;48.146;17.098;2023-08-01T20:44:32;98655.56;;;21.36
42197;BMP280;27866;48.146;17.098;2023-08-01T20:48:43;98676.63;;;21.36
42197;BMP280;27866;48.146;17.098;2023-08-01T20:52:54;98705.75;;;21.35
42197;BMP280;27866;48.146;17.098;2023-08-01T20:57:06;98704.78;;;21.36
42197;BMP280;27866;48.146;17.098;2023-08-01T21:01:17;98694.66;;;21.39
42197;BMP280;27866;48.146;17.098;2023-08-01T21:05:28;98689.34;;;21.33
42197;BMP280;27866;48.146;17.098;2023-08-01T21:09:39;98701.28;;;21.29
42197;BMP280;27866;48.146;17.098;2023-08-01T21:13:50;98716.66;;;21.26
42197;BMP280;27866;48.146;17.098;2023-08-01T21:18:01;98711.44;;;21.32
42197;BMP280;27866;48.146;17.098;2023-08-01T21:22:12;98724.03;;;21.43
42197;BMP280;27866;48.146;17.098;2023-08-01T21:26:23;98732.16;;;21.41
42197;BMP280;27866;48.146;17.098;2023-08-01T21:30:34;98741.44;;;21.37
42197;BMP280;27866;48.146;17.098;2023-08-01T21:34:45;98744.75;;;21.46
42197;BMP280;27866;48.146;17.098;2023-08-01T21:38:57;98738.88;;;21.50
42197;BMP280;27866;48.146;17.098;2023-08-01T21:43:08;98726.50;;;21.50
42197;BMP280;27866;48.146;17.098;2023-08-01T21:47:19;98712.72;;;21.48
42197;BMP280;27866;48.146;17.098;2023-08-01T21:51:30;98733.53;;;21.37
42197;BMP280;27866;48.146;17.098;2023-08-01T21:55:41;98723.56;;;21.33
42197;BMP280;27866;48.146;17.098;2023-08-01T21:59:52;98737.38;;;21.35
42197;BMP280;27866;48.146;17.098;2023-08-01T22:04:05;98725.22;;;21.34
42197;BMP280;27866;48.146;17.098;2023-08-01T22:08:17;98739.47;;;21.46
42197;BMP280;27866;48.146;17.098;2023-08-01T22:12:28;98754.09;;;21.54
42197;BMP280;27866;48.146;17.098;2023-08-01T22:16:39;98748.41;;;21.51
42197;BMP280;27866;48.146;17.098;2023-08-01T22:20:54;98749.41;;;21.50
42197;BMP280;27866;48.146;17.098;2023-08-01T22:25:06;98754.63;;;21.37
42197;BMP280;27866;48.146;17.098;2023-08-01T22:29:17;98751.50;;;21.28
42197;BMP280;27866;48.146;17.098;2023-08-01T22:33:28;98752.25;;;21.16
42197;BMP280;27866;48.146;17.098;2023-08-01T22:37:39;98746.94;;;21.09
42197;BMP280;27866;48.146;17.098;2023-08-01T22:41:50;98751.53;;;21.01
42197;BMP280;27866;48.146;17.098;2023-08-01T22:46:01;98759.06;;;21.04
42197;BMP280;27866;48.146;17.098;2023-08-01T22:50:12;98758.78;;;21.19
42197;BMP280;27866;48.146;17.098;2023-08-01T22:54:24;98754.91;;;21.16
42197;BMP280;27866;48.146;17.098;2023-08-01T22:58:35;98750.56;;;21.08
42197;BMP280;27866;48.146;17.098;2023-08-01T23:02:46;98752.25;;;21.16
42197;BMP280;27866;48.146;17.098;2023-08-01T23:06:57;98743.34;;;21.17
42197;BMP280;27866;48.146;17.098;2023-08-01T23:11:08;98740.97;;;21.21
42197;BMP280;27866;48.146;17.098;2023-08-01T23:15:20;98745.69;;;21.05
42197;BMP280;27866;48.146;17.098;2023-08-01T23:19:31;98745.47;;;20.80
42197;BMP280;27866;48.146;17.098;2023-08-01T23:23:42;98739.41;;;20.60
42197;BMP280;27866;48.146;17.098;2023-08-01T23:27:53;98740.31;;;20.46
42197;BMP280;27866;48.146;17.098;2023-08-01T23:32:04;98746.72;;;20.37
42197;BMP280;27866;48.146;17.098;2023-08-01T23:36:15;98747.84;;;20.29
42197;BMP280;27866;48.146;17.098;2023-08-01T23:40:27;98747.31;;;20.19
42197;BMP280;27866;48.146;17.098;2023-08-01T23:44:38;98744.41;;;20.14
42197;BMP280;27866;48.146;17.098;2023-08-01T23:48:49;98746.53;;;20.04